Epic Balta — 9VED8 — position and weather

sailwx.info

Track history (hours):
 
Tides and Currents Weather Stations Pressure Air Temp Water Temp Dewpoint Dewpoint Depression Visibility Wind Speed Wind Dir Waves Ship Positions

Epic Balta

Last reported at 2016-Sep-28 03:12 UTC. Time now 2016-Sep-30 01:36 UTC.
Position N 10°36' W 061°46'.

Length 100 m; draft 5.1 m.

Type: Ship (hazmat cat D). MMSI: 565525000.

Date/timePositionNaut miles runAvg speedWind from/ knotsBaromVisibWave heightAir tempDewpointWater temp
2016-Sep-28 03:12N 10°36' W 061°46'711.3
2016-Sep-28 02:34N 10°31' W 061°41'1211.7
2016-Sep-28 01:32N 10°22' W 061°33'5 2.2
2016-Sep-27 23:11N 10°19' W 061°29'0 0.0
2016-Sep-26 15:22N 10°19' W 061°29'1 0.6
2016-Sep-26 13:33N 10°19' W 061°30'0 0.0
2016-Sep-26 11:33N 10°19' W 061°30'27 9.1
2016-Sep-26 08:34N 10°40' W 061°48'  
2016-Sep-19 03:33N 16°25' W 062°34'1211.2
2016-Sep-19 02:28N 16°36' W 062°39'8111.7
2016-Sep-18 19:33N 17°53' W 063°05'8 2.1
2016-Sep-18 15:33N 18°01' W 063°05'0 0.0
2016-Sep-18 14:24N 18°01' W 063°05'0 0.0
2016-Sep-18 10:29N 18°01' W 063°05'0 0.0
2016-Sep-18 09:30N 18°01' W 063°05'  
Track history (hours):
 
Tides and Currents Weather Stations Pressure Air Temp Water Temp Dewpoint Dewpoint Depression Visibility Wind Speed Wind Dir Waves Ship Positions

Epic Balta

Last reported at 2016-Sep-28 03:12 UTC. Time now 2016-Sep-30 01:36 UTC.
Position N 10°36' W 061°46'.

Length 100 m; draft 5.1 m.

Type: Ship (hazmat cat D). MMSI: 565525000.

Date/timePositionNaut miles runAvg speedWind from/ knotsBaromVisibWave heightAir tempDewpointWater temp
2016-Sep-28 03:12N 10°36' W 061°46'711.3
2016-Sep-28 02:34N 10°31' W 061°41'1211.7
2016-Sep-28 01:32N 10°22' W 061°33'5 2.2
2016-Sep-27 23:11N 10°19' W 061°29'0 0.0
2016-Sep-26 15:22N 10°19' W 061°29'1 0.6
2016-Sep-26 13:33N 10°19' W 061°30'0 0.0
2016-Sep-26 11:33N 10°19' W 061°30'27 9.1
2016-Sep-26 08:34N 10°40' W 061°48'  
2016-Sep-19 03:33N 16°25' W 062°34'1211.2
2016-Sep-19 02:28N 16°36' W 062°39'8111.7
2016-Sep-18 19:33N 17°53' W 063°05'8 2.1
2016-Sep-18 15:33N 18°01' W 063°05'0 0.0
2016-Sep-18 14:24N 18°01' W 063°05'0 0.0
2016-Sep-18 10:29N 18°01' W 063°05'0 0.0
2016-Sep-18 09:30N 18°01' W 063°05'  

Dump ship's entire track history